createdAt,value
2016-12-26T00:00:48.760Z,0
2016-12-26T00:01:57.460Z,0
2016-12-26T00:03:06.158Z,0
2016-12-26T00:04:14.850Z,0
2016-12-26T00:05:23.871Z,0
2016-12-26T00:06:32.569Z,0
2016-12-26T00:07:41.266Z,0
2016-12-26T00:08:49.964Z,0
2016-12-26T00:09:58.660Z,0
2016-12-26T00:11:07.384Z,0
2016-12-26T00:12:16.080Z,0
2016-12-26T00:13:24.776Z,0
2016-12-26T00:14:33.481Z,0
2016-12-26T00:15:42.178Z,0
2016-12-26T00:16:50.872Z,0
2016-12-26T00:17:59.571Z,0
2016-12-26T00:19:08.298Z,0
2016-12-26T00:20:17.306Z,0
2016-12-26T00:21:26.007Z,0
2016-12-26T00:22:34.733Z,0
2016-12-26T00:23:43.432Z,0
2016-12-26T00:24:52.133Z,0
2016-12-26T00:26:00.825Z,0
2016-12-26T00:27:09.522Z,0
2016-12-26T00:28:18.222Z,0
2016-12-26T00:29:26.922Z,0
2016-12-26T00:30:35.622Z,0
2016-12-26T00:31:44.318Z,0
2016-12-26T00:32:53.014Z,0
2016-12-26T00:34:01.710Z,0
2016-12-26T00:35:10.716Z,0
2016-12-26T00:36:19.416Z,0
2016-12-26T00:37:28.112Z,0
2016-12-26T00:38:36.810Z,0
2016-12-26T00:39:45.508Z,0
2016-12-26T00:40:54.204Z,0
2016-12-26T00:42:02.905Z,0
2016-12-26T00:43:11.601Z,0
2016-12-26T00:44:20.296Z,0
2016-12-26T00:45:28.996Z,0
2016-12-26T00:46:37.693Z,0
2016-12-26T00:47:46.386Z,0
2016-12-26T00:48:55.086Z,0
2016-12-26T00:50:03.787Z,0
2016-12-26T00:51:12.512Z,0
2016-12-26T00:52:21.220Z,0
2016-12-26T00:53:29.916Z,0
2016-12-26T00:54:38.615Z,0
2016-12-26T00:55:47.310Z,0
2016-12-26T00:56:56.007Z,0
2016-12-26T00:58:04.702Z,0
2016-12-26T00:59:13.394Z,0
2016-12-26T01:00:22.090Z,0
2016-12-26T01:01:30.785Z,0
2016-12-26T01:02:39.494Z,0
2016-12-26T01:03:48.189Z,0
2016-12-26T01:04:56.884Z,0
2016-12-26T01:06:05.583Z,0
2016-12-26T01:07:14.632Z,0
2016-12-26T01:08:23.326Z,0
2016-12-26T01:09:32.061Z,0
2016-12-26T01:10:40.755Z,0
2016-12-26T01:11:49.457Z,0
2016-12-26T01:12:58.182Z,0
2016-12-26T01:14:06.881Z,0
2016-12-26T01:15:15.578Z,0
2016-12-26T01:16:24.278Z,0
2016-12-26T01:17:32.972Z,0
2016-12-26T01:18:41.662Z,0
2016-12-26T01:19:50.362Z,0
2016-12-26T01:20:59.062Z,0
2016-12-26T01:22:07.761Z,0
2016-12-26T01:23:16.456Z,0
2016-12-26T01:24:25.150Z,0
2016-12-26T01:25:33.882Z,0
2016-12-26T01:26:42.576Z,0
2016-12-26T01:27:51.590Z,0
2016-12-26T01:29:00.293Z,0
2016-12-26T01:30:09.003Z,0
2016-12-26T01:31:17.702Z,0
2016-12-26T01:32:26.406Z,0
2016-12-26T01:33:35.111Z,0
2016-12-26T01:34:43.810Z,0
2016-12-26T01:35:52.508Z,0
2016-12-26T01:37:01.207Z,0
2016-12-26T01:38:09.903Z,0
2016-12-26T01:39:18.601Z,0
2016-12-26T01:40:27.297Z,0
2016-12-26T01:41:35.995Z,0
2016-12-26T01:42:44.692Z,0
2016-12-26T01:43:53.391Z,0
2016-12-26T01:45:02.110Z,0
2016-12-26T01:46:10.812Z,0
2016-12-26T01:47:19.508Z,0
2016-12-26T01:48:28.207Z,0
2016-12-26T01:49:36.898Z,0
2016-12-26T01:50:45.592Z,0
2016-12-26T01:51:54.287Z,0
2016-12-26T01:53:02.978Z,0
2016-12-26T01:54:11.676Z,0
2016-12-26T01:55:20.371Z,0
2016-12-26T01:56:29.064Z,0
2016-12-26T01:57:37.757Z,0
2016-12-26T01:58:46.458Z,0
2016-12-26T01:59:55.154Z,0
2016-12-26T02:01:03.853Z,0
2016-12-26T02:02:12.550Z,0
2016-12-26T02:03:21.251Z,0
2016-12-26T02:04:29.961Z,0
2016-12-26T02:05:38.660Z,0
2016-12-26T02:06:47.357Z,0
2016-12-26T02:07:56.053Z,0
2016-12-26T02:09:04.751Z,0
2016-12-26T02:10:13.446Z,0
2016-12-26T02:11:22.143Z,0
2016-12-26T02:12:30.836Z,0
2016-12-26T02:13:39.539Z,0
2016-12-26T02:14:48.234Z,0
2016-12-26T02:15:56.929Z,0
2016-12-26T02:17:05.624Z,0
2016-12-26T02:18:14.326Z,0
2016-12-26T02:19:23.025Z,0
2016-12-26T02:20:31.747Z,0
2016-12-26T02:21:40.439Z,0
2016-12-26T02:22:49.135Z,0
2016-12-26T02:23:57.828Z,0
2016-12-26T02:25:06.524Z,0
2016-12-26T02:26:15.216Z,0
2016-12-26T02:27:23.915Z,0
2016-12-26T02:28:32.610Z,0
2016-12-26T02:29:41.305Z,0
2016-12-26T02:30:50.015Z,0
2016-12-26T02:31:59.030Z,0
2016-12-26T02:33:07.723Z,0
2016-12-26T02:34:16.421Z,0
2016-12-26T02:35:25.115Z,0
2016-12-26T02:36:33.838Z,0
2016-12-26T02:37:42.532Z,0
2016-12-26T02:38:51.225Z,0
2016-12-26T02:39:59.920Z,0
2016-12-26T02:41:08.615Z,0
2016-12-26T02:42:17.308Z,0
2016-12-26T02:43:26.001Z,0
2016-12-26T02:44:34.696Z,0
2016-12-26T02:45:43.392Z,0
2016-12-26T02:46:52.092Z,0
2016-12-26T02:48:00.784Z,0
2016-12-26T02:49:09.479Z,0
2016-12-26T02:50:18.174Z,0
2016-12-26T02:51:26.875Z,0
2016-12-26T02:52:35.569Z,0
2016-12-26T02:53:44.260Z,0
2016-12-26T02:54:52.977Z,0
2016-12-26T02:56:01.670Z,0
2016-12-26T02:57:10.366Z,0
2016-12-26T02:58:19.059Z,0
2016-12-26T02:59:27.751Z,0
2016-12-26T03:00:36.448Z,0
2016-12-26T03:01:45.143Z,0
2016-12-26T03:02:53.836Z,0
2016-12-26T03:04:02.529Z,0
2016-12-26T03:05:11.224Z,0
2016-12-26T03:06:19.979Z,0
2016-12-26T03:07:28.700Z,0
2016-12-26T03:08:37.395Z,0
2016-12-26T03:09:46.095Z,0
2016-12-26T03:10:54.794Z,0
2016-12-26T03:12:03.484Z,0
2016-12-26T03:13:12.191Z,0
2016-12-26T03:14:20.889Z,0
2016-12-26T03:15:29.611Z,0
2016-12-26T03:16:38.304Z,0
2016-12-26T03:17:47.050Z,0
2016-12-26T03:18:55.750Z,0
2016-12-26T03:20:04.456Z,0
2016-12-26T03:21:13.151Z,0
2016-12-26T03:22:22.167Z,0
2016-12-26T03:23:30.862Z,0
2016-12-26T03:24:39.555Z,0
2016-12-26T03:25:48.253Z,0
2016-12-26T03:26:56.945Z,0
2016-12-26T03:28:05.638Z,0
2016-12-26T03:29:14.333Z,0
2016-12-26T03:30:23.030Z,0
2016-12-26T03:31:31.726Z,0
2016-12-26T03:32:40.425Z,0
2016-12-26T03:33:49.124Z,0
2016-12-26T03:34:57.820Z,0
2016-12-26T03:36:06.512Z,0
2016-12-26T03:37:15.216Z,0
2016-12-26T03:38:23.911Z,0
2016-12-26T03:39:32.606Z,0
2016-12-26T03:40:41.315Z,0
2016-12-26T03:41:50.012Z,0
2016-12-26T03:42:58.706Z,0
2016-12-26T03:44:07.740Z,0
2016-12-26T03:45:16.435Z,0
2016-12-26T03:46:25.228Z,0
2016-12-26T03:47:33.922Z,0
2016-12-26T03:48:42.612Z,0
2016-12-26T03:49:51.305Z,0
2016-12-26T03:51:00.003Z,0
2016-12-26T03:52:08.697Z,0
2016-12-26T03:53:17.394Z,0
2016-12-26T03:54:26.086Z,0
2016-12-26T03:55:34.783Z,0
2016-12-26T03:56:43.475Z,0
2016-12-26T03:57:52.844Z,0
2016-12-26T03:59:01.540Z,0
2016-12-26T04:00:10.231Z,0
2016-12-26T04:01:18.925Z,0
2016-12-26T04:02:27.618Z,0
2016-12-26T04:03:36.317Z,0
2016-12-26T04:04:45.016Z,0
2016-12-26T04:05:53.713Z,0
2016-12-26T04:07:02.744Z,0
2016-12-26T04:08:11.443Z,0
2016-12-26T04:09:20.141Z,0
2016-12-26T04:10:28.837Z,0
2016-12-26T04:11:37.532Z,0
2016-12-26T04:12:46.256Z,0
2016-12-26T04:13:54.950Z,0
2016-12-26T04:15:03.643Z,0
2016-12-26T04:16:12.338Z,0
2016-12-26T04:17:21.033Z,0
2016-12-26T04:18:30.052Z,0
2016-12-26T04:19:38.744Z,0
2016-12-26T04:20:47.439Z,0
2016-12-26T04:21:56.154Z,0
2016-12-26T04:23:04.850Z,0
2016-12-26T04:24:13.546Z,0
2016-12-26T04:25:22.240Z,0
2016-12-26T04:26:30.938Z,0
2016-12-26T04:27:39.633Z,0
2016-12-26T04:28:48.339Z,0
2016-12-26T04:29:57.034Z,0
2016-12-26T04:31:05.734Z,0
2016-12-26T04:32:14.456Z,0
2016-12-26T04:33:23.152Z,0
2016-12-26T04:34:31.847Z,0
2016-12-26T04:35:40.543Z,0
2016-12-26T04:36:49.235Z,0
2016-12-26T04:37:57.937Z,0
2016-12-26T04:39:06.633Z,0
2016-12-26T04:40:15.327Z,0
2016-12-26T04:41:24.020Z,0
2016-12-26T04:42:32.715Z,0
2016-12-26T04:43:41.412Z,0
2016-12-26T04:44:50.104Z,0
2016-12-26T04:45:58.797Z,0
2016-12-26T04:47:07.493Z,0
2016-12-26T04:48:16.186Z,0
2016-12-26T04:49:24.889Z,0
2016-12-26T04:50:33.616Z,0
2016-12-26T04:51:42.311Z,0
2016-12-26T04:52:51.003Z,0
2016-12-26T04:53:59.699Z,0
2016-12-26T04:55:08.707Z,0
2016-12-26T04:56:17.404Z,0
2016-12-26T04:57:26.107Z,0
2016-12-26T04:58:34.803Z,0
2016-12-26T04:59:43.498Z,0
2016-12-26T05:00:52.206Z,0
2016-12-26T05:02:00.902Z,0
2016-12-26T05:03:09.591Z,0
2016-12-26T05:04:18.286Z,0
2016-12-26T05:05:26.987Z,0
2016-12-26T05:06:35.676Z,0
2016-12-26T05:07:44.378Z,0
2016-12-26T05:08:53.068Z,0
2016-12-26T05:10:01.760Z,0
2016-12-26T05:11:10.453Z,0
2016-12-26T05:12:19.152Z,0
2016-12-26T05:13:27.843Z,0
2016-12-26T05:14:36.540Z,0
2016-12-26T05:15:45.238Z,0
2016-12-26T05:16:53.936Z,0
2016-12-26T05:18:02.631Z,0
2016-12-26T05:19:11.332Z,0
2016-12-26T05:20:20.030Z,0
2016-12-26T05:21:28.727Z,0
2016-12-26T05:22:37.422Z,0
2016-12-26T05:23:46.127Z,0
2016-12-26T05:24:54.825Z,0
2016-12-26T05:26:03.520Z,0
2016-12-26T05:27:12.211Z,0
2016-12-26T05:28:20.905Z,0
2016-12-26T05:29:29.600Z,0
2016-12-26T05:30:38.296Z,0
2016-12-26T05:31:46.988Z,0
2016-12-26T05:32:55.682Z,0
2016-12-26T05:34:04.375Z,0
2016-12-26T05:35:13.070Z,0
2016-12-26T05:36:21.764Z,0
2016-12-26T05:37:30.459Z,0
2016-12-26T05:38:39.158Z,0
2016-12-26T05:39:48.176Z,0
2016-12-26T05:40:56.868Z,0
2016-12-26T05:42:05.561Z,0
2016-12-26T05:43:14.283Z,0
2016-12-26T05:44:22.982Z,0
2016-12-26T05:45:31.685Z,0
2016-12-26T05:46:40.379Z,0
2016-12-26T05:47:49.076Z,0
2016-12-26T05:48:57.772Z,0
2016-12-26T05:50:06.465Z,0
2016-12-26T05:51:15.156Z,0
2016-12-26T05:52:23.876Z,0
2016-12-26T05:53:32.569Z,0
2016-12-26T05:54:41.264Z,0
2016-12-26T05:55:49.957Z,0
2016-12-26T05:56:58.647Z,0
2016-12-26T05:58:07.338Z,0
2016-12-26T05:59:16.030Z,0
2016-12-26T06:00:24.763Z,0
2016-12-26T06:01:33.516Z,0
2016-12-26T06:02:42.205Z,0
2016-12-26T06:03:50.907Z,0
2016-12-26T06:04:59.603Z,0
2016-12-26T06:06:08.300Z,0
2016-12-26T06:07:16.995Z,0
2016-12-26T06:08:25.686Z,0
2016-12-26T06:09:34.379Z,0
2016-12-26T06:10:43.072Z,0
2016-12-26T06:11:51.763Z,0
2016-12-26T06:13:00.460Z,0
2016-12-26T06:14:09.158Z,0
2016-12-26T06:15:17.851Z,0
2016-12-26T06:16:26.546Z,0
2016-12-26T06:17:35.235Z,0
2016-12-26T06:18:43.924Z,0
2016-12-26T06:19:52.625Z,0
2016-12-26T06:21:01.314Z,0
2016-12-26T06:22:10.007Z,0
2016-12-26T06:23:18.701Z,0
2016-12-26T06:24:27.390Z,0
2016-12-26T06:25:36.086Z,0
2016-12-26T06:26:44.779Z,0
2016-12-26T06:27:53.474Z,0
2016-12-26T06:29:02.167Z,0
2016-12-26T06:30:10.885Z,0
2016-12-26T06:31:19.583Z,0
2016-12-26T06:32:28.278Z,0
2016-12-26T06:33:36.972Z,0
2016-12-26T06:34:45.666Z,0
2016-12-26T06:35:54.360Z,0
2016-12-26T06:37:03.060Z,0
2016-12-26T06:38:11.757Z,0
2016-12-26T06:39:20.451Z,0
2016-12-26T06:40:29.143Z,0
2016-12-26T06:41:37.837Z,0
2016-12-26T06:42:46.534Z,0
2016-12-26T06:43:55.230Z,0
2016-12-26T06:45:03.923Z,0
2016-12-26T06:46:12.616Z,0
2016-12-26T06:47:21.309Z,0
2016-12-26T06:48:30.033Z,0
2016-12-26T06:49:38.727Z,0
2016-12-26T06:50:47.424Z,0
2016-12-26T06:51:56.145Z,0
2016-12-26T06:53:04.841Z,0
2016-12-26T06:54:13.537Z,0
2016-12-26T06:55:22.230Z,0
2016-12-26T06:56:30.920Z,0
2016-12-26T06:57:39.615Z,0
2016-12-26T06:58:48.314Z,0
2016-12-26T06:59:57.006Z,0
2016-12-26T07:01:05.700Z,0
2016-12-26T07:02:14.401Z,0
2016-12-26T07:03:23.096Z,0
2016-12-26T07:04:31.791Z,0
2016-12-26T07:05:40.486Z,0
2016-12-26T07:06:49.492Z,0
2016-12-26T07:07:58.188Z,0
2016-12-26T07:09:06.881Z,0
2016-12-26T07:10:15.578Z,0
2016-12-26T07:11:24.272Z,0
2016-12-26T07:12:32.969Z,0
2016-12-26T07:13:41.690Z,0
2016-12-26T07:14:50.380Z,0
2016-12-26T07:15:59.074Z,0
2016-12-26T07:17:07.792Z,0
2016-12-26T07:18:16.484Z,0
2016-12-26T07:19:25.180Z,0
2016-12-26T07:20:33.875Z,0
2016-12-26T07:21:42.566Z,0
2016-12-26T07:22:51.258Z,0
2016-12-26T07:23:59.951Z,0
2016-12-26T07:25:08.644Z,0
2016-12-26T07:26:17.335Z,0
2016-12-26T07:27:26.026Z,4
2016-12-26T07:28:34.739Z,4
2016-12-26T07:29:43.433Z,0
2016-12-26T07:30:52.136Z,0
2016-12-26T07:32:01.151Z,0
2016-12-26T07:33:09.846Z,4
2016-12-26T07:34:18.538Z,4
2016-12-26T07:35:27.235Z,0
2016-12-26T07:36:35.933Z,4
2016-12-26T07:37:44.625Z,4
2016-12-26T07:38:53.320Z,4
2016-12-26T07:40:02.010Z,4
2016-12-26T07:41:10.704Z,4
2016-12-26T07:42:19.402Z,8
2016-12-26T07:43:28.099Z,4
2016-12-26T07:44:36.792Z,8
2016-12-26T07:45:45.488Z,4
2016-12-26T07:46:54.187Z,8
2016-12-26T07:48:02.886Z,12
2016-12-26T07:49:11.582Z,12
2016-12-26T07:50:20.274Z,12
2016-12-26T07:51:28.964Z,16
2016-12-26T07:52:37.661Z,20
2016-12-26T07:53:46.349Z,20
2016-12-26T07:54:55.043Z,20
2016-12-26T07:56:04.054Z,24
2016-12-26T07:57:12.751Z,28
2016-12-26T07:58:21.450Z,32
2016-12-26T07:59:30.144Z,36
2016-12-26T08:00:38.845Z,44
2016-12-26T08:01:47.853Z,48
2016-12-26T08:02:56.544Z,48
2016-12-26T08:04:05.239Z,56
2016-12-26T08:05:13.932Z,60
2016-12-26T08:06:22.627Z,68
2016-12-26T08:07:31.319Z,72
2016-12-26T08:08:40.015Z,76
2016-12-26T08:09:48.708Z,84
2016-12-26T08:10:57.405Z,92
2016-12-26T08:12:06.101Z,100
2016-12-26T08:13:14.791Z,112
2016-12-26T08:14:23.494Z,120
2016-12-26T08:15:32.241Z,132
2016-12-26T08:16:40.943Z,140
2016-12-26T08:17:49.634Z,148
2016-12-26T08:18:58.328Z,160
2016-12-26T08:20:07.333Z,172
2016-12-26T08:21:16.027Z,180
2016-12-26T08:22:24.726Z,192
2016-12-26T08:23:33.423Z,204
2016-12-26T08:24:42.116Z,216
2016-12-26T08:25:50.810Z,228
2016-12-26T08:26:59.505Z,240
2016-12-26T08:28:08.203Z,256
2016-12-26T08:29:16.899Z,268
2016-12-26T08:30:25.593Z,276
2016-12-26T08:31:34.290Z,292
2016-12-26T08:32:42.979Z,300
2016-12-26T08:33:51.676Z,312
2016-12-26T08:35:00.376Z,332
2016-12-26T08:36:09.066Z,368
2016-12-26T08:37:17.761Z,412
2016-12-26T08:38:26.452Z,440
2016-12-26T08:39:35.143Z,480
2016-12-26T08:40:43.836Z,524
2016-12-26T08:41:52.533Z,548
2016-12-26T08:43:01.227Z,564
2016-12-26T08:44:09.919Z,572
2016-12-26T08:45:18.609Z,576
2016-12-26T08:46:27.327Z,584
2016-12-26T08:47:36.024Z,600
2016-12-26T08:48:44.719Z,624
2016-12-26T08:49:53.417Z,644
2016-12-26T08:51:02.110Z,664
2016-12-26T08:52:10.815Z,708
2016-12-26T08:53:19.508Z,756
2016-12-26T08:54:28.209Z,796
2016-12-26T08:55:36.905Z,828
2016-12-26T08:56:45.624Z,868
2016-12-26T08:57:54.316Z,896
2016-12-26T08:59:03.004Z,904
2016-12-26T09:00:11.695Z,892
2016-12-26T09:01:20.385Z,908
2016-12-26T09:02:29.080Z,924
2016-12-26T09:03:37.772Z,936
2016-12-26T09:04:46.472Z,952
2016-12-26T09:05:55.165Z,976
2016-12-26T09:07:03.861Z,1000
2016-12-26T09:08:12.557Z,1020
2016-12-26T09:09:21.249Z,1036
2016-12-26T09:10:29.942Z,1056
2016-12-26T09:11:38.635Z,1088
2016-12-26T09:12:47.337Z,1116
2016-12-26T09:13:56.026Z,1124
2016-12-26T09:15:04.726Z,1120
2016-12-26T09:16:13.423Z,1132
2016-12-26T09:17:22.118Z,1116
2016-12-26T09:18:30.813Z,1088
2016-12-26T09:19:39.535Z,1068
2016-12-26T09:20:48.228Z,1064
2016-12-26T09:21:56.919Z,1068
2016-12-26T09:23:05.614Z,1076
2016-12-26T09:24:14.308Z,1108
2016-12-26T09:25:23.004Z,1168
2016-12-26T09:26:31.738Z,1236
2016-12-26T09:27:40.449Z,1288
2016-12-26T09:28:49.141Z,1300
2016-12-26T09:29:57.834Z,1264
2016-12-26T09:31:06.530Z,1212
2016-12-26T09:32:15.224Z,1108
2016-12-26T09:33:23.953Z,1064
2016-12-26T09:34:32.643Z,1068
2016-12-26T09:35:41.369Z,1068
2016-12-26T09:36:50.065Z,1052
2016-12-26T09:37:58.757Z,1044
2016-12-26T09:39:07.450Z,1032
2016-12-26T09:40:16.145Z,1036
2016-12-26T09:41:24.840Z,1068
2016-12-26T09:42:33.560Z,1128
2016-12-26T09:43:42.250Z,1196
2016-12-26T09:44:50.942Z,1264
2016-12-26T09:45:59.643Z,1324
2016-12-26T09:47:08.336Z,1432
2016-12-26T09:48:17.040Z,1572
2016-12-26T09:49:25.736Z,1756
2016-12-26T09:50:34.430Z,1932
2016-12-26T09:51:43.122Z,2080
2016-12-26T09:52:51.817Z,2100
2016-12-26T09:54:00.514Z,1948
2016-12-26T09:55:09.211Z,1696
2016-12-26T09:56:17.910Z,1468
2016-12-26T09:57:26.632Z,1288
2016-12-26T09:58:35.325Z,1208
2016-12-26T09:59:44.017Z,1192
2016-12-26T10:00:52.720Z,1212
2016-12-26T10:02:01.434Z,1252
2016-12-26T10:03:10.128Z,1276
2016-12-26T10:04:18.821Z,1296
2016-12-26T10:05:27.515Z,1328
2016-12-26T10:06:36.211Z,1408
2016-12-26T10:07:44.939Z,1536
2016-12-26T10:08:53.633Z,1672
2016-12-26T10:10:02.328Z,1800
2016-12-26T10:11:11.021Z,1964
2016-12-26T10:12:19.718Z,2140
2016-12-26T10:13:28.420Z,2136
2016-12-26T10:14:37.115Z,1956
2016-12-26T10:15:45.807Z,1840
2016-12-26T10:16:54.498Z,1844
2016-12-26T10:18:03.194Z,1904
2016-12-26T10:19:11.889Z,1936
2016-12-26T10:20:20.580Z,1888
2016-12-26T10:21:29.274Z,1816
2016-12-26T10:22:37.971Z,1700
2016-12-26T10:23:46.660Z,1596
2016-12-26T10:24:55.356Z,1560
2016-12-26T10:26:04.048Z,1584
2016-12-26T10:27:12.748Z,1600
2016-12-26T10:28:21.440Z,1580
2016-12-26T10:29:30.136Z,1536
2016-12-26T10:30:38.834Z,1520
2016-12-26T10:31:47.527Z,1504
2016-12-26T10:32:56.221Z,1500
2016-12-26T10:34:04.923Z,1496
2016-12-26T10:35:13.618Z,1508
2016-12-26T10:36:22.315Z,1528
2016-12-26T10:37:31.008Z,1536
2016-12-26T10:38:39.704Z,1688
2016-12-26T10:39:48.404Z,1708
2016-12-26T10:40:57.100Z,1872
2016-12-26T10:42:05.795Z,1964
2016-12-26T10:43:14.488Z,2256
2016-12-26T10:44:23.182Z,2444
2016-12-26T10:45:31.875Z,2296
2016-12-26T10:46:40.575Z,2320
2016-12-26T10:47:49.268Z,2444
2016-12-26T10:48:57.956Z,2620
2016-12-26T10:50:06.647Z,2612
2016-12-26T10:51:15.337Z,4172
2016-12-26T10:52:24.036Z,6620
2016-12-26T10:53:32.731Z,6496
2016-12-26T10:54:41.424Z,6468
2016-12-26T10:55:50.158Z,7012
2016-12-26T10:56:58.890Z,7248
2016-12-26T10:58:07.591Z,7292
2016-12-26T10:59:16.284Z,6916
2016-12-26T11:00:24.975Z,4512
2016-12-26T11:01:33.666Z,4452
2016-12-26T11:02:42.366Z,2484
2016-12-26T11:03:51.081Z,2856
2016-12-26T11:04:59.774Z,2712
2016-12-26T11:06:08.472Z,3140
2016-12-26T11:07:17.162Z,3352
2016-12-26T11:08:25.863Z,3064
2016-12-26T11:09:34.586Z,2900
2016-12-26T11:10:43.283Z,2856
2016-12-26T11:11:51.976Z,2964
2016-12-26T11:13:00.672Z,3052
2016-12-26T11:14:09.364Z,3128
2016-12-26T11:15:18.062Z,3160
2016-12-26T11:16:26.758Z,3124
2016-12-26T11:17:35.457Z,3092
2016-12-26T11:18:44.153Z,3040
2016-12-26T11:19:52.847Z,2992
2016-12-26T11:21:01.540Z,2916
2016-12-26T11:22:10.239Z,2792
2016-12-26T11:23:18.949Z,2660
2016-12-26T11:24:27.644Z,2520
2016-12-26T11:25:36.341Z,2464
2016-12-26T11:26:45.044Z,2384
2016-12-26T11:27:53.740Z,2292
2016-12-26T11:29:02.437Z,2280
2016-12-26T11:30:11.163Z,2380
2016-12-26T11:31:19.856Z,2324
2016-12-26T11:32:28.551Z,2348
2016-12-26T11:33:37.559Z,2528
2016-12-26T11:34:46.564Z,2760
2016-12-26T11:35:55.260Z,2948
2016-12-26T11:37:03.959Z,2808
2016-12-26T11:38:12.657Z,3624
2016-12-26T11:39:21.350Z,3208
2016-12-26T11:40:30.398Z,3048
2016-12-26T11:41:39.094Z,2964
2016-12-26T11:42:47.790Z,3168
2016-12-26T11:43:56.483Z,6992
2016-12-26T11:45:05.175Z,5744
2016-12-26T11:46:13.871Z,3224
2016-12-26T11:47:22.565Z,3852
2016-12-26T11:48:31.258Z,4436
2016-12-26T11:49:39.950Z,6052
2016-12-26T11:50:48.646Z,8520
2016-12-26T11:51:57.340Z,9252
2016-12-26T11:53:06.136Z,9472
2016-12-26T11:54:14.832Z,9480
2016-12-26T11:55:23.525Z,9632
2016-12-26T11:56:32.220Z,9912
2016-12-26T11:57:40.910Z,10400
2016-12-26T11:58:49.602Z,9440
2016-12-26T11:59:58.299Z,7060
2016-12-26T12:01:07.026Z,4996
2016-12-26T12:02:15.720Z,4156
2016-12-26T12:03:24.418Z,4184
2016-12-26T12:04:33.430Z,5584
2016-12-26T12:05:42.124Z,6260
2016-12-26T12:06:50.820Z,5796
2016-12-26T12:07:59.828Z,6040
2016-12-26T12:09:08.525Z,6004
2016-12-26T12:10:17.224Z,5928
2016-12-26T12:11:25.924Z,5944
2016-12-26T12:12:34.617Z,5892
2016-12-26T12:13:43.316Z,5884
2016-12-26T12:14:52.008Z,5876
2016-12-26T12:16:00.705Z,5824
2016-12-26T12:17:09.400Z,5836
2016-12-26T12:18:18.098Z,5800
2016-12-26T12:19:26.796Z,5800
2016-12-26T12:20:35.523Z,5768
2016-12-26T12:21:44.221Z,5620
2016-12-26T12:22:52.922Z,4388
2016-12-26T12:24:01.627Z,2196
2016-12-26T12:25:10.326Z,1992
2016-12-26T12:26:19.022Z,2124
2016-12-26T12:27:27.717Z,2936
2016-12-26T12:28:36.415Z,4048
2016-12-26T12:29:45.110Z,3464
2016-12-26T12:30:53.805Z,4460
2016-12-26T12:32:02.512Z,4972
2016-12-26T12:33:11.239Z,4616
2016-12-26T12:34:20.265Z,3916
2016-12-26T12:35:28.982Z,3016
2016-12-26T12:36:37.713Z,2484
2016-12-26T12:37:46.819Z,2528
2016-12-26T12:38:55.518Z,2828
2016-12-26T12:40:04.213Z,3372
2016-12-26T12:41:12.913Z,3720
2016-12-26T12:42:21.604Z,4896
2016-12-26T12:43:30.304Z,4372
2016-12-26T12:44:39.007Z,3084
2016-12-26T12:45:47.697Z,2608
2016-12-26T12:46:56.397Z,2476
2016-12-26T12:48:05.096Z,2632
2016-12-26T12:49:13.808Z,3012
2016-12-26T12:50:22.497Z,3296
2016-12-26T12:51:31.215Z,3368
2016-12-26T12:52:39.913Z,2512
2016-12-26T12:53:48.610Z,2024
2016-12-26T12:54:57.306Z,1952
2016-12-26T12:56:06.001Z,1864
2016-12-26T12:57:14.693Z,1664
2016-12-26T12:58:23.387Z,1612
2016-12-26T12:59:32.082Z,1552
2016-12-26T13:00:40.779Z,1560
2016-12-26T13:01:49.479Z,1576
2016-12-26T13:02:58.175Z,1628
2016-12-26T13:04:06.871Z,1684
2016-12-26T13:05:15.568Z,1716
2016-12-26T13:06:24.256Z,1696
2016-12-26T13:07:32.952Z,1652
2016-12-26T13:08:41.671Z,1580
2016-12-26T13:09:50.361Z,1576
2016-12-26T13:10:59.050Z,1988
2016-12-26T13:12:07.743Z,1892
2016-12-26T13:13:16.438Z,1496
2016-12-26T13:14:25.132Z,1268
2016-12-26T13:15:33.826Z,1248
2016-12-26T13:16:42.523Z,1268
2016-12-26T13:17:51.216Z,1296
2016-12-26T13:18:59.967Z,1332
2016-12-26T13:20:08.986Z,1376
2016-12-26T13:21:17.678Z,1424
2016-12-26T13:22:26.372Z,1452
2016-12-26T13:23:35.062Z,1432
2016-12-26T13:24:43.760Z,1392
2016-12-26T13:25:52.449Z,1320
2016-12-26T13:27:01.140Z,1252
2016-12-26T13:28:09.832Z,1188
2016-12-26T13:29:18.525Z,1136
2016-12-26T13:30:27.220Z,1092
2016-12-26T13:31:35.918Z,1056
2016-12-26T13:32:44.608Z,1028
2016-12-26T13:33:53.302Z,1000
2016-12-26T13:35:01.994Z,972
2016-12-26T13:36:10.694Z,940
2016-12-26T13:37:19.383Z,908
2016-12-26T13:38:28.107Z,888
2016-12-26T13:39:36.804Z,876
2016-12-26T13:40:45.496Z,860
2016-12-26T13:41:54.185Z,836
2016-12-26T13:43:02.882Z,820
2016-12-26T13:44:11.581Z,808
2016-12-26T13:45:20.276Z,796
2016-12-26T13:46:28.965Z,776
2016-12-26T13:47:37.982Z,740
2016-12-26T13:48:46.674Z,712
2016-12-26T13:49:55.373Z,684
2016-12-26T13:51:04.063Z,660
2016-12-26T13:52:12.785Z,636
2016-12-26T13:53:21.476Z,612
2016-12-26T13:54:30.171Z,592
2016-12-26T13:55:38.862Z,568
2016-12-26T13:56:47.556Z,544
2016-12-26T13:57:56.248Z,520
2016-12-26T13:59:04.947Z,504
2016-12-26T14:00:13.640Z,488
2016-12-26T14:01:22.330Z,476
2016-12-26T14:02:31.024Z,468
2016-12-26T14:03:39.710Z,464
2016-12-26T14:04:48.406Z,456
2016-12-26T14:05:57.106Z,440
2016-12-26T14:07:05.798Z,412
2016-12-26T14:08:14.489Z,380
2016-12-26T14:09:23.178Z,356
2016-12-26T14:10:31.870Z,328
2016-12-26T14:11:40.562Z,304
2016-12-26T14:12:49.254Z,280
2016-12-26T14:13:57.947Z,256
2016-12-26T14:15:06.638Z,232
2016-12-26T14:16:15.330Z,212
2016-12-26T14:17:24.027Z,192
2016-12-26T14:18:32.716Z,176
2016-12-26T14:19:41.404Z,160
2016-12-26T14:20:50.094Z,144
2016-12-26T14:21:58.789Z,124
2016-12-26T14:23:07.481Z,112
2016-12-26T14:24:16.173Z,104
2016-12-26T14:25:24.871Z,96
2016-12-26T14:26:33.566Z,92
2016-12-26T14:27:42.256Z,84
2016-12-26T14:28:50.946Z,76
2016-12-26T14:29:59.638Z,72
2016-12-26T14:31:08.334Z,64
2016-12-26T14:32:17.026Z,56
2016-12-26T14:33:25.714Z,52
2016-12-26T14:34:34.409Z,48
2016-12-26T14:35:43.103Z,44
2016-12-26T14:36:51.789Z,40
2016-12-26T14:38:00.481Z,36
2016-12-26T14:39:09.177Z,32
2016-12-26T14:40:17.869Z,28
2016-12-26T14:41:26.565Z,24
2016-12-26T14:42:35.259Z,24
2016-12-26T14:43:43.971Z,16
2016-12-26T14:44:52.667Z,16
2016-12-26T14:46:01.355Z,16
2016-12-26T14:47:10.045Z,12
2016-12-26T14:48:18.763Z,12
2016-12-26T14:49:27.451Z,8
2016-12-26T14:50:36.146Z,8
2016-12-26T14:51:44.833Z,8
2016-12-26T14:52:53.522Z,8
2016-12-26T14:54:02.209Z,4
2016-12-26T14:55:10.902Z,4
2016-12-26T14:56:19.593Z,8
2016-12-26T14:57:28.290Z,4
2016-12-26T14:58:36.975Z,4
2016-12-26T14:59:45.672Z,4
2016-12-26T15:00:54.361Z,0
2016-12-26T15:02:03.053Z,0
2016-12-26T15:03:11.752Z,4
2016-12-26T15:04:20.443Z,4
2016-12-26T15:05:29.145Z,0
2016-12-26T15:06:37.840Z,0
2016-12-26T15:07:46.527Z,0
2016-12-26T15:08:55.220Z,0
2016-12-26T15:10:03.908Z,0
2016-12-26T15:11:12.608Z,0
2016-12-26T15:12:21.297Z,0
2016-12-26T15:13:29.990Z,0
2016-12-26T15:14:38.712Z,0
2016-12-26T15:15:47.406Z,0
2016-12-26T15:16:56.098Z,0
2016-12-26T15:18:04.820Z,0
2016-12-26T15:19:13.516Z,0
2016-12-26T15:20:22.206Z,0
2016-12-26T15:21:30.897Z,0
2016-12-26T15:22:39.593Z,0
2016-12-26T15:23:48.286Z,0
2016-12-26T15:24:56.976Z,0
2016-12-26T15:26:05.984Z,0
2016-12-26T15:27:14.682Z,0
2016-12-26T15:28:23.371Z,0
2016-12-26T15:29:32.061Z,0
2016-12-26T15:30:40.758Z,0
2016-12-26T15:31:49.763Z,0
2016-12-26T15:32:58.455Z,0
2016-12-26T15:34:07.153Z,0
2016-12-26T15:35:15.849Z,0
2016-12-26T15:36:24.542Z,0
2016-12-26T15:37:33.235Z,0
2016-12-26T15:38:41.927Z,0
2016-12-26T15:39:50.622Z,0
2016-12-26T15:40:59.317Z,0
2016-12-26T15:42:08.015Z,0
2016-12-26T15:43:16.700Z,0
2016-12-26T15:44:25.390Z,0
2016-12-26T15:45:34.079Z,0
2016-12-26T15:46:42.778Z,0
2016-12-26T15:47:51.506Z,0
2016-12-26T15:49:00.206Z,0
2016-12-26T15:50:08.896Z,0
2016-12-26T15:51:17.591Z,0
2016-12-26T15:52:26.279Z,0
2016-12-26T15:53:35.279Z,0
2016-12-26T15:54:43.969Z,0
2016-12-26T15:55:52.664Z,0
2016-12-26T15:57:01.361Z,0
2016-12-26T15:58:10.051Z,0
2016-12-26T15:59:18.739Z,0
2016-12-26T16:00:27.433Z,0
2016-12-26T16:01:36.127Z,0
2016-12-26T16:02:44.814Z,0
2016-12-26T16:03:53.507Z,0
2016-12-26T16:05:02.205Z,0
2016-12-26T16:06:10.897Z,0
2016-12-26T16:07:19.619Z,0
2016-12-26T16:08:28.309Z,0
2016-12-26T16:09:36.999Z,0
2016-12-26T16:10:45.693Z,0
2016-12-26T16:11:54.439Z,0
2016-12-26T16:13:03.136Z,0
2016-12-26T16:14:11.827Z,0
2016-12-26T16:15:20.520Z,0
2016-12-26T16:16:29.213Z,0